createdAt,value
2019-02-19T00:01:15.745Z,82.40
2019-02-19T00:03:43.084Z,82.30
2019-02-19T00:06:10.453Z,82.10
2019-02-19T00:08:38.188Z,82.30
2019-02-19T00:11:05.852Z,82.00
2019-02-19T00:13:33.394Z,82.30
2019-02-19T00:16:00.608Z,82.40
2019-02-19T00:18:27.818Z,82.60
2019-02-19T00:20:55.390Z,82.60
2019-02-19T00:23:22.522Z,82.50
2019-02-19T00:25:49.716Z,82.50
2019-02-19T00:28:16.954Z,82.50
2019-02-19T00:30:44.629Z,82.50
2019-02-19T00:33:12.019Z,82.80
2019-02-19T00:35:39.418Z,82.80
2019-02-19T00:38:06.700Z,82.80
2019-02-19T00:40:34.074Z,83.00
2019-02-19T00:43:01.305Z,83.10
2019-02-19T00:45:28.652Z,82.90
2019-02-19T00:47:55.936Z,83.00
2019-02-19T00:50:23.302Z,83.10
2019-02-19T00:52:50.418Z,83.50
2019-02-19T00:55:17.911Z,83.40
2019-02-19T00:57:45.192Z,83.30
2019-02-19T01:00:13.221Z,83.50
2019-02-19T01:02:40.696Z,83.40
2019-02-19T01:05:08.140Z,83.60
2019-02-19T01:07:35.593Z,83.70
2019-02-19T01:10:03.603Z,84.20
2019-02-19T01:12:30.800Z,84.20
2019-02-19T01:14:58.036Z,84.40
2019-02-19T01:17:25.380Z,84.50
2019-02-19T01:19:52.790Z,84.40
2019-02-19T01:22:20.139Z,84.50
2019-02-19T01:24:47.505Z,84.60
2019-02-19T01:27:14.932Z,84.80
2019-02-19T01:29:43.427Z,84.40
2019-02-19T01:32:10.633Z,84.10
2019-02-19T01:34:37.996Z,84.10
2019-02-19T01:37:05.419Z,84.20
2019-02-19T01:39:32.639Z,84.30
2019-02-19T01:41:59.976Z,84.40
2019-02-19T01:44:27.093Z,84.40
2019-02-19T01:46:54.377Z,84.50
2019-02-19T01:49:21.643Z,84.80
2019-02-19T01:51:48.919Z,84.90
2019-02-19T01:54:16.021Z,85.10
2019-02-19T01:56:43.369Z,85.30
2019-02-19T01:59:10.658Z,85.30
2019-02-19T02:01:38.079Z,85.10
2019-02-19T02:04:05.402Z,84.90
2019-02-19T02:06:32.668Z,84.80
2019-02-19T02:08:59.948Z,85.20
2019-02-19T02:11:27.165Z,85.10
2019-02-19T02:13:54.513Z,84.90
2019-02-19T02:16:21.578Z,85.20
2019-02-19T02:18:48.861Z,85.20
2019-02-19T02:21:16.537Z,85.50
2019-02-19T02:23:43.996Z,85.40
2019-02-19T02:26:11.435Z,85.20
2019-02-19T02:28:38.675Z,85.10
2019-02-19T02:31:06.032Z,85.20
2019-02-19T02:33:33.281Z,85.50
2019-02-19T02:36:00.369Z,85.40
2019-02-19T02:38:27.815Z,85.40
2019-02-19T02:40:55.154Z,85.40
2019-02-19T02:43:22.542Z,85.50
2019-02-19T02:45:53.198Z,85.20
2019-02-19T02:48:19.196Z,85.20
2019-02-19T02:50:46.661Z,85.20
2019-02-19T02:53:13.964Z,85.10
2019-02-19T02:55:41.127Z,85.20
2019-02-19T02:58:08.572Z,85.20
2019-02-19T03:00:35.799Z,85.50
2019-02-19T03:03:03.689Z,85.50
2019-02-19T03:05:31.099Z,85.60
2019-02-19T03:08:02.022Z,85.80
2019-02-19T03:10:29.404Z,85.90
2019-02-19T03:12:56.756Z,85.90
2019-02-19T03:15:24.087Z,85.70
2019-02-19T03:17:51.373Z,85.70
2019-02-19T03:20:19.024Z,85.70
2019-02-19T03:22:46.357Z,85.70
2019-02-19T03:25:13.741Z,85.80
2019-02-19T03:27:41.361Z,85.80
2019-02-19T03:30:09.755Z,85.90
2019-02-19T03:32:37.111Z,86.10
2019-02-19T03:35:04.570Z,86.20
2019-02-19T03:37:31.702Z,86.40
2019-02-19T03:39:59.087Z,86.00
2019-02-19T03:42:26.573Z,86.30
2019-02-19T03:44:53.830Z,86.40
2019-02-19T03:47:21.173Z,86.60
2019-02-19T03:49:48.389Z,86.50
2019-02-19T03:52:15.633Z,86.70
2019-02-19T03:54:42.981Z,86.60
2019-02-19T03:57:10.312Z,86.70
2019-02-19T03:59:37.657Z,86.50
2019-02-19T04:02:04.931Z,86.50
2019-02-19T04:04:32.323Z,86.50
2019-02-19T04:06:59.711Z,86.20
2019-02-19T04:09:26.898Z,86.30
2019-02-19T04:11:54.122Z,86.10
2019-02-19T04:14:21.466Z,86.00
2019-02-19T04:16:48.991Z,85.90
2019-02-19T04:19:16.276Z,85.90
2019-02-19T04:21:43.810Z,85.90
2019-02-19T04:24:11.224Z,85.90
2019-02-19T04:26:38.449Z,85.60
2019-02-19T04:29:05.849Z,85.80
2019-02-19T04:31:32.958Z,85.40
2019-02-19T04:34:00.233Z,85.30
2019-02-19T04:36:28.407Z,85.20
2019-02-19T04:38:55.775Z,85.20
2019-02-19T04:41:22.850Z,85.30
2019-02-19T04:43:50.076Z,85.10
2019-02-19T04:46:17.411Z,85.20
2019-02-19T04:48:44.492Z,85.20
2019-02-19T04:51:12.118Z,85.30
2019-02-19T04:53:39.366Z,85.00
2019-02-19T04:56:07.517Z,85.30
2019-02-19T04:58:34.647Z,85.10
2019-02-19T05:01:02.021Z,85.40
2019-02-19T05:03:29.245Z,85.40
2019-02-19T05:05:56.341Z,85.40
2019-02-19T05:08:23.700Z,85.40
2019-02-19T05:10:50.938Z,85.90
2019-02-19T05:13:18.251Z,86.00
2019-02-19T05:15:45.715Z,85.80
2019-02-19T05:18:13.133Z,85.60
2019-02-19T05:20:40.399Z,85.70
2019-02-19T05:23:07.569Z,85.70
2019-02-19T05:25:34.922Z,85.60
2019-02-19T05:28:02.032Z,85.80
2019-02-19T05:30:29.450Z,86.00
2019-02-19T05:32:56.837Z,86.10
2019-02-19T05:35:24.078Z,86.40
2019-02-19T05:37:51.432Z,86.40
2019-02-19T05:40:18.718Z,86.40
2019-02-19T05:42:46.165Z,86.40
2019-02-19T05:45:14.467Z,86.50
2019-02-19T05:47:41.829Z,86.50
2019-02-19T05:50:09.071Z,86.60
2019-02-19T05:52:36.266Z,86.70
2019-02-19T05:55:03.994Z,86.70
2019-02-19T05:57:31.297Z,86.80
2019-02-19T05:59:58.616Z,87.20
2019-02-19T06:02:26.231Z,87.40
2019-02-19T06:04:53.435Z,87.70
2019-02-19T06:07:20.534Z,87.90
2019-02-19T06:09:47.787Z,88.00
2019-02-19T06:12:14.889Z,88.20
2019-02-19T06:14:42.155Z,88.60
2019-02-19T06:17:09.352Z,89.10
2019-02-19T06:19:36.577Z,88.80
2019-02-19T06:22:03.932Z,88.80
2019-02-19T06:24:31.390Z,89.30
2019-02-19T06:26:59.910Z,89.30
2019-02-19T06:29:27.281Z,88.90
2019-02-19T06:31:54.671Z,88.80
2019-02-19T06:34:22.007Z,88.70
2019-02-19T06:36:49.397Z,88.70
2019-02-19T06:39:16.632Z,88.30
2019-02-19T06:41:43.844Z,88.10
2019-02-19T06:44:11.083Z,88.50
2019-02-19T06:46:38.467Z,88.40
2019-02-19T06:49:06.050Z,88.00
2019-02-19T06:51:34.115Z,87.40
2019-02-19T06:54:02.268Z,87.20
2019-02-19T06:56:30.178Z,87.10
2019-02-19T06:58:57.835Z,86.90
2019-02-19T07:01:43.828Z,86.70
2019-02-19T07:04:18.620Z,86.60
2019-02-19T07:06:46.522Z,86.60
2019-02-19T07:09:14.288Z,86.70
2019-02-19T07:11:42.523Z,86.50
2019-02-19T07:14:10.457Z,86.00
2019-02-19T07:16:38.166Z,85.70
2019-02-19T07:19:06.136Z,85.40
2019-02-19T07:21:34.096Z,85.30
2019-02-19T07:24:04.508Z,85.00
2019-02-19T07:26:31.367Z,84.80
2019-02-19T07:28:59.267Z,84.90
2019-02-19T07:31:27.024Z,84.80
2019-02-19T07:33:54.754Z,84.80
2019-02-19T07:36:22.555Z,84.90
2019-02-19T07:38:50.405Z,84.70
2019-02-19T07:41:19.432Z,84.60
2019-02-19T07:43:47.239Z,84.50
2019-02-19T07:46:15.083Z,84.40
2019-02-19T07:48:42.973Z,84.30
2019-02-19T07:51:10.931Z,84.30
2019-02-19T07:53:38.917Z,84.10
2019-02-19T07:56:06.732Z,84.10
2019-02-19T07:58:34.398Z,84.00
2019-02-19T08:01:02.759Z,83.70
2019-02-19T08:03:30.750Z,83.90
2019-02-19T08:05:58.562Z,83.50
2019-02-19T08:08:26.632Z,83.40
2019-02-19T08:10:54.989Z,83.30
2019-02-19T08:13:23.001Z,83.10
2019-02-19T08:15:50.604Z,83.00
2019-02-19T08:18:18.406Z,82.50
2019-02-19T08:20:46.228Z,82.30
2019-02-19T08:23:14.247Z,82.10
2019-02-19T08:25:42.256Z,81.60
2019-02-19T08:28:10.179Z,81.70
2019-02-19T08:30:38.271Z,81.50
2019-02-19T08:33:06.183Z,81.40
2019-02-19T08:35:34.058Z,81.20
2019-02-19T08:38:01.639Z,80.70
2019-02-19T08:40:30.124Z,80.80
2019-02-19T08:42:58.285Z,80.60
2019-02-19T08:45:26.235Z,80.70
2019-02-19T08:47:55.842Z,80.70
2019-02-19T08:50:23.887Z,80.80
2019-02-19T08:52:51.826Z,80.50
2019-02-19T08:55:19.937Z,80.10
2019-02-19T08:57:47.898Z,80.00
2019-02-19T09:00:15.920Z,79.90
2019-02-19T09:02:50.229Z,79.90
2019-02-19T09:05:19.217Z,79.90
2019-02-19T09:07:47.098Z,79.60
2019-02-19T09:10:14.975Z,79.50
2019-02-19T09:12:42.909Z,79.50
2019-02-19T09:15:11.322Z,79.40
2019-02-19T09:17:39.286Z,79.50
2019-02-19T09:20:07.338Z,79.10
2019-02-19T09:22:35.352Z,79.00
2019-02-19T09:25:03.538Z,78.70
2019-02-19T09:27:31.629Z,78.70
2019-02-19T09:29:59.958Z,78.60
2019-02-19T09:32:28.220Z,78.40
2019-02-19T09:34:56.397Z,78.50
2019-02-19T09:37:24.101Z,78.10
2019-02-19T09:39:52.161Z,78.20
2019-02-19T09:42:19.933Z,78.30
2019-02-19T09:44:47.676Z,78.20
2019-02-19T09:47:15.798Z,78.20
2019-02-19T09:49:43.605Z,77.90
2019-02-19T09:52:11.762Z,77.80
2019-02-19T09:54:39.736Z,77.90
2019-02-19T09:57:07.740Z,77.70
2019-02-19T09:59:35.514Z,77.70
2019-02-19T10:02:03.859Z,77.90
2019-02-19T10:04:32.390Z,78.00
2019-02-19T10:07:00.292Z,78.10
2019-02-19T10:09:28.130Z,77.80
2019-02-19T10:11:56.081Z,77.80
2019-02-19T10:14:24.080Z,78.00
2019-02-19T10:16:54.958Z,77.90
2019-02-19T10:19:22.802Z,78.30
2019-02-19T10:21:50.387Z,78.40
2019-02-19T10:24:18.181Z,78.40
2019-02-19T10:26:46.014Z,78.30
2019-02-19T10:29:14.084Z,78.50
2019-02-19T10:31:41.991Z,78.40
2019-02-19T10:34:09.936Z,78.70
2019-02-19T10:36:38.613Z,78.80
2019-02-19T10:39:10.245Z,79.00
2019-02-19T10:41:38.725Z,79.00
2019-02-19T10:44:06.359Z,79.30
2019-02-19T10:46:34.364Z,78.50
2019-02-19T10:49:02.309Z,78.00
2019-02-19T10:51:30.229Z,77.90
2019-02-19T10:53:58.767Z,77.70
2019-02-19T10:56:26.663Z,78.10
2019-02-19T10:58:54.592Z,78.10
2019-02-19T11:01:22.599Z,77.40
2019-02-19T11:03:50.281Z,76.80
2019-02-19T11:06:18.430Z,77.40
2019-02-19T11:08:46.368Z,76.70
2019-02-19T11:11:14.551Z,76.50
2019-02-19T11:13:42.548Z,75.90
2019-02-19T11:16:10.690Z,75.80
2019-02-19T11:18:38.778Z,75.40
2019-02-19T11:21:06.537Z,75.40
2019-02-19T11:23:34.708Z,75.30
2019-02-19T11:26:03.594Z,75.10
2019-02-19T11:28:31.384Z,75.10
2019-02-19T11:30:59.405Z,74.70
2019-02-19T11:33:27.206Z,74.40
2019-02-19T11:35:55.061Z,73.90
2019-02-19T11:38:23.138Z,73.70
2019-02-19T11:40:51.162Z,73.80
2019-02-19T11:43:18.992Z,74.20
2019-02-19T11:45:47.127Z,74.20
2019-02-19T11:48:14.990Z,74.10
2019-02-19T11:50:43.024Z,73.60
2019-02-19T11:53:11.314Z,73.50
2019-02-19T11:55:39.235Z,74.10
2019-02-19T11:58:07.048Z,74.00
2019-02-19T12:00:37.529Z,74.40
2019-02-19T12:03:05.748Z,74.00
2019-02-19T12:05:33.661Z,74.40
2019-02-19T12:08:01.345Z,74.00
2019-02-19T12:10:29.290Z,74.20
2019-02-19T12:12:58.371Z,74.10
2019-02-19T12:15:34.704Z,74.10
2019-02-19T12:17:56.401Z,73.90
2019-02-19T12:20:24.014Z,73.90
2019-02-19T12:22:51.832Z,74.00
2019-02-19T12:25:19.757Z,74.20
2019-02-19T12:27:47.813Z,74.30
2019-02-19T12:30:15.747Z,74.60
2019-02-19T12:32:43.687Z,74.70
2019-02-19T12:35:11.643Z,74.30
2019-02-19T12:37:39.733Z,74.70
2019-02-19T12:40:08.818Z,74.80
2019-02-19T12:42:36.885Z,74.90
2019-02-19T12:45:05.449Z,75.00
2019-02-19T12:47:33.169Z,74.80
2019-02-19T12:50:00.699Z,74.40
2019-02-19T12:52:28.545Z,74.50
2019-02-19T12:54:56.528Z,74.60
2019-02-19T12:57:24.577Z,74.80
2019-02-19T12:59:56.654Z,74.40
2019-02-19T13:02:22.452Z,75.00
2019-02-19T13:04:51.555Z,74.90
2019-02-19T13:07:19.596Z,74.80
2019-02-19T13:09:48.034Z,74.40
2019-02-19T13:12:16.361Z,74.00
2019-02-19T13:14:44.212Z,74.70
2019-02-19T13:17:12.830Z,74.40
2019-02-19T13:19:40.685Z,74.90
2019-02-19T13:22:08.555Z,75.00
2019-02-19T13:24:36.294Z,74.90
2019-02-19T13:27:05.421Z,74.80
2019-02-19T13:29:33.291Z,75.10
2019-02-19T13:32:00.982Z,75.40
2019-02-19T13:34:29.849Z,75.50
2019-02-19T13:36:57.584Z,75.70
2019-02-19T13:39:25.576Z,75.90
2019-02-19T13:41:53.405Z,76.40
2019-02-19T13:44:21.593Z,76.70
2019-02-19T13:46:49.226Z,76.40
2019-02-19T13:49:17.101Z,76.50
2019-02-19T13:51:44.990Z,76.60
2019-02-19T13:54:20.239Z,76.90
2019-02-19T13:56:48.278Z,76.90
2019-02-19T13:59:16.536Z,76.90
2019-02-19T14:01:44.476Z,77.00
2019-02-19T14:04:14.129Z,77.40
2019-02-19T14:06:41.843Z,77.30
2019-02-19T14:09:09.931Z,77.40
2019-02-19T14:11:38.094Z,77.40
2019-02-19T14:14:28.301Z,77.50
2019-02-19T14:16:59.368Z,77.80
2019-02-19T14:19:48.144Z,77.50
2019-02-19T14:22:47.314Z,77.50
2019-02-19T14:25:33.553Z,77.20
2019-02-19T14:28:19.440Z,77.10
2019-02-19T14:31:07.706Z,77.40
2019-02-19T14:33:51.956Z,77.50
2019-02-19T14:36:45.132Z,77.80
2019-02-19T14:39:38.563Z,77.70
2019-02-19T14:42:24.892Z,77.70
2019-02-19T14:45:12.386Z,78.00
2019-02-19T14:47:47.739Z,78.00
2019-02-19T14:50:35.154Z,78.20
2019-02-19T14:53:20.700Z,78.30
2019-02-19T14:56:17.188Z,78.60
2019-02-19T14:59:03.287Z,78.30
2019-02-19T15:01:49.259Z,78.60
2019-02-19T15:04:48.930Z,78.80
2019-02-19T15:07:35.073Z,78.80
2019-02-19T15:10:21.179Z,78.90
2019-02-19T15:13:17.115Z,79.30
2019-02-19T15:15:52.522Z,79.50
2019-02-19T15:18:45.589Z,79.40
2019-02-19T15:21:31.391Z,79.50
2019-02-19T15:24:18.888Z,79.50
2019-02-19T15:27:24.566Z,79.60
2019-02-19T15:30:31.011Z,79.40
2019-02-19T15:33:16.917Z,79.70
2019-02-19T15:36:03.167Z,79.90
2019-02-19T15:38:50.964Z,80.00
2019-02-19T15:41:36.745Z,80.20
2019-02-19T15:44:24.251Z,80.10
2019-02-19T15:47:11.886Z,80.20
2019-02-19T15:49:59.191Z,80.00
2019-02-19T15:52:46.684Z,80.20
2019-02-19T15:55:33.538Z,80.20
2019-02-19T15:58:09.907Z,80.10
2019-02-19T16:00:43.256Z,80.30
2019-02-19T16:03:40.884Z,80.60
2019-02-19T16:06:31.276Z,80.70
2019-02-19T16:09:06.193Z,80.60
2019-02-19T16:11:46.666Z,80.60
2019-02-19T16:14:49.231Z,80.70
2019-02-19T16:17:42.773Z,80.90
2019-02-19T16:20:42.310Z,80.90
2019-02-19T16:23:19.400Z,80.90
2019-02-19T16:25:57.454Z,80.90
2019-02-19T16:28:36.815Z,81.10
2019-02-19T16:31:21.353Z,81.30
2019-02-19T16:34:00.518Z,81.30
2019-02-19T16:36:40.787Z,81.50
2019-02-19T16:39:17.773Z,81.70
2019-02-19T16:42:04.396Z,81.90
2019-02-19T16:44:42.800Z,82.20
2019-02-19T16:47:21.915Z,82.20
2019-02-19T16:50:06.870Z,82.50
2019-02-19T16:52:52.485Z,82.60
2019-02-19T16:55:39.879Z,82.70
2019-02-19T16:58:16.608Z,83.00
2019-02-19T17:01:01.663Z,83.00
2019-02-19T17:04:03.392Z,83.10
2019-02-19T17:06:56.437Z,83.20
2019-02-19T17:09:45.379Z,83.30
2019-02-19T17:12:32.210Z,83.30
2019-02-19T17:15:14.075Z,83.50
2019-02-19T17:18:00.305Z,83.60
2019-02-19T17:20:36.967Z,83.80
2019-02-19T17:23:24.458Z,83.70
2019-02-19T17:26:04.356Z,84.00
2019-02-19T17:28:49.511Z,83.80
2019-02-19T17:31:42.772Z,83.80
2019-02-19T17:34:28.801Z,83.80
2019-02-19T17:37:16.441Z,84.00
2019-02-19T17:40:06.765Z,84.20
2019-02-19T17:42:53.190Z,84.20
2019-02-19T17:45:39.510Z,84.30
2019-02-19T17:48:25.787Z,84.40
2019-02-19T17:51:15.639Z,84.50
2019-02-19T17:53:59.005Z,84.60
2019-02-19T17:56:44.615Z,84.60
2019-02-19T17:59:30.984Z,84.50
2019-02-19T18:02:09.835Z,84.60
2019-02-19T18:05:04.557Z,84.70
2019-02-19T18:08:06.753Z,84.60
2019-02-19T18:10:54.207Z,84.80
2019-02-19T18:13:44.136Z,84.90
2019-02-19T18:16:29.858Z,85.10
2019-02-19T18:18:57.875Z,85.00
2019-02-19T18:21:25.940Z,85.10
2019-02-19T18:23:53.977Z,85.10
2019-02-19T18:26:21.883Z,85.30
2019-02-19T18:28:50.233Z,85.20
2019-02-19T18:31:21.074Z,85.30
2019-02-19T18:33:50.278Z,85.10
2019-02-19T18:36:17.972Z,85.60
2019-02-19T18:38:45.880Z,85.20
2019-02-19T18:41:13.775Z,84.80
2019-02-19T18:43:41.818Z,84.80
2019-02-19T18:46:09.757Z,84.90
2019-02-19T18:48:37.780Z,85.00
2019-02-19T18:51:05.544Z,84.90
2019-02-19T18:53:33.307Z,85.40
2019-02-19T18:56:05.113Z,85.80
2019-02-19T18:58:32.920Z,85.50
2019-02-19T19:01:00.906Z,85.40
2019-02-19T19:03:28.930Z,85.40
2019-02-19T19:05:56.810Z,85.10
2019-02-19T19:08:24.901Z,85.10
2019-02-19T19:10:52.647Z,85.30
2019-02-19T19:13:20.584Z,85.40
2019-02-19T19:15:49.587Z,85.40
2019-02-19T19:18:19.285Z,85.70
2019-02-19T19:20:47.285Z,86.00
2019-02-19T19:23:15.270Z,86.20
2019-02-19T19:25:43.316Z,86.00
2019-02-19T19:28:11.330Z,86.00
2019-02-19T19:30:39.467Z,86.10
2019-02-19T19:33:07.486Z,86.20
2019-02-19T19:35:35.416Z,86.30
2019-02-19T19:38:04.482Z,86.70
2019-02-19T19:40:32.509Z,86.40
2019-02-19T19:43:00.485Z,86.70
2019-02-19T19:45:28.656Z,86.90
2019-02-19T19:47:56.620Z,86.80
2019-02-19T19:50:24.915Z,86.90
2019-02-19T19:52:52.955Z,86.80
2019-02-19T19:55:20.718Z,86.80
2019-02-19T19:57:48.565Z,87.30
2019-02-19T20:00:16.783Z,87.00
2019-02-19T20:02:44.739Z,87.00
2019-02-19T20:05:12.590Z,87.10
2019-02-19T20:07:40.963Z,87.40
2019-02-19T20:10:10.070Z,87.20
2019-02-19T20:12:38.022Z,87.60
2019-02-19T20:15:07.545Z,87.70
2019-02-19T20:17:35.615Z,87.90
2019-02-19T20:20:04.308Z,88.50
2019-02-19T20:22:32.495Z,88.80
2019-02-19T20:25:00.624Z,88.80
2019-02-19T20:27:28.653Z,88.90
2019-02-19T20:29:56.437Z,88.90
2019-02-19T20:32:24.558Z,89.00
2019-02-19T20:34:52.700Z,89.10
2019-02-19T20:37:22.166Z,89.20
2019-02-19T20:39:50.496Z,89.30
2019-02-19T20:42:22.353Z,89.30
2019-02-19T20:44:50.440Z,89.20
2019-02-19T20:47:18.743Z,89.60
2019-02-19T20:49:46.891Z,89.70
2019-02-19T20:52:15.964Z,89.70
2019-02-19T20:54:43.947Z,89.60
2019-02-19T20:57:11.860Z,89.40
2019-02-19T20:59:39.873Z,89.30
2019-02-19T21:02:07.752Z,89.30
2019-02-19T21:04:36.046Z,89.10
2019-02-19T21:07:04.095Z,88.90
2019-02-19T21:09:42.986Z,88.90
2019-02-19T21:12:02.325Z,89.20
2019-02-19T21:14:30.654Z,89.60
2019-02-19T21:16:59.047Z,89.30
2019-02-19T21:19:26.812Z,89.30
2019-02-19T21:21:54.716Z,89.20
2019-02-19T21:24:23.141Z,89.30
2019-02-19T21:26:51.107Z,89.40
2019-02-19T21:29:19.305Z,89.70
2019-02-19T21:31:47.218Z,89.20
2019-02-19T21:34:15.165Z,89.20
2019-02-19T21:36:43.440Z,89.00
2019-02-19T21:39:11.278Z,88.90
2019-02-19T21:41:40.416Z,89.00
2019-02-19T21:44:08.541Z,89.00
2019-02-19T21:46:37.203Z,89.00
2019-02-19T21:49:05.936Z,88.60
2019-02-19T21:51:33.990Z,88.40
2019-02-19T21:54:02.453Z,88.70
2019-02-19T21:56:30.844Z,88.50
2019-02-19T21:58:59.606Z,88.30
2019-02-19T22:01:27.794Z,88.70
2019-02-19T22:03:56.993Z,89.10
2019-02-19T22:06:24.954Z,89.60
2019-02-19T22:08:53.770Z,89.40
2019-02-19T22:11:21.922Z,89.20
2019-02-19T22:13:50.207Z,89.00
2019-02-19T22:16:18.467Z,89.10
2019-02-19T22:18:46.517Z,89.40
2019-02-19T22:21:22.296Z,90.20
2019-02-19T22:23:50.324Z,90.10
2019-02-19T22:26:18.286Z,89.90
2019-02-19T22:28:46.239Z,89.90
2019-02-19T22:31:14.191Z,89.80
2019-02-19T22:33:41.968Z,89.70
2019-02-19T22:36:10.219Z,90.10
2019-02-19T22:38:37.806Z,90.60
2019-02-19T22:41:07.482Z,90.60
2019-02-19T22:43:35.592Z,90.90
2019-02-19T22:46:04.431Z,91.00
2019-02-19T22:48:32.426Z,90.90
2019-02-19T22:51:00.581Z,90.30
2019-02-19T22:53:52.907Z,90.10
2019-02-19T22:56:26.745Z,89.70
2019-02-19T22:58:54.909Z,89.60
2019-02-19T23:01:42.734Z,89.40
2019-02-19T23:04:10.818Z,89.60
2019-02-19T23:06:39.168Z,89.20
2019-02-19T23:09:07.977Z,89.00
2019-02-19T23:11:36.349Z,89.10
2019-02-19T23:14:05.253Z,89.40
2019-02-19T23:16:33.976Z,89.40
2019-02-19T23:19:02.263Z,89.50
2019-02-19T23:21:30.476Z,89.40
2019-02-19T23:23:58.255Z,89.90
2019-02-19T23:26:26.146Z,89.90
2019-02-19T23:28:54.177Z,89.90
2019-02-19T23:31:22.340Z,90.10
2019-02-19T23:33:50.341Z,90.20
2019-02-19T23:36:37.849Z,89.90
2019-02-19T23:39:06.534Z,89.60
2019-02-19T23:41:36.105Z,89.40
2019-02-19T23:44:03.994Z,89.60
2019-02-19T23:46:31.724Z,89.70
2019-02-19T23:48:59.521Z,89.80
2019-02-19T23:51:27.529Z,90.00
2019-02-19T23:53:55.485Z,89.90
2019-02-19T23:56:24.527Z,90.00
2019-02-19T23:58:52.565Z,89.60
